sensor_id;sensor_type;location;lat;lon;timestamp;P1;durP1;ratioP1;P2;durP2;ratioP2
17854;SDS011;9053;53.358;6.382;2023-06-22T00:02:22;18.85;;;16.42;;
17854;SDS011;9053;53.358;6.382;2023-06-22T00:04:52;17.17;;;15.32;;
17854;SDS011;9053;53.358;6.382;2023-06-22T00:07:22;16.63;;;14.82;;
17854;SDS011;9053;53.358;6.382;2023-06-22T00:09:52;20.02;;;17.27;;
17854;SDS011;9053;53.358;6.382;2023-06-22T00:12:22;20.10;;;17.83;;
17854;SDS011;9053;53.358;6.382;2023-06-22T00:14:54;20.33;;;17.67;;
17854;SDS011;9053;53.358;6.382;2023-06-22T00:17:24;20.25;;;17.75;;
17854;SDS011;9053;53.358;6.382;2023-06-22T00:19:54;19.58;;;17.50;;
17854;SDS011;9053;53.358;6.382;2023-06-22T00:22:25;18.90;;;15.95;;
17854;SDS011;9053;53.358;6.382;2023-06-22T00:24:57;19.20;;;17.02;;
17854;SDS011;9053;53.358;6.382;2023-06-22T00:27:27;18.88;;;16.48;;
17854;SDS011;9053;53.358;6.382;2023-06-22T00:29:59;19.38;;;16.85;;
17854;SDS011;9053;53.358;6.382;2023-06-22T00:32:29;18.48;;;15.85;;
17854;SDS011;9053;53.358;6.382;2023-06-22T00:34:59;17.30;;;15.20;;
17854;SDS011;9053;53.358;6.382;2023-06-22T00:37:29;19.65;;;16.30;;
17854;SDS011;9053;53.358;6.382;2023-06-22T00:40:00;18.05;;;15.77;;
17854;SDS011;9053;53.358;6.382;2023-06-22T00:42:31;17.70;;;15.63;;
17854;SDS011;9053;53.358;6.382;2023-06-22T00:45:04;16.65;;;14.55;;
17854;SDS011;9053;53.358;6.382;2023-06-22T00:47:34;17.85;;;14.85;;
17854;SDS011;9053;53.358;6.382;2023-06-22T00:50:05;19.27;;;16.65;;
17854;SDS011;9053;53.358;6.382;2023-06-22T00:52:37;18.38;;;16.40;;
17854;SDS011;9053;53.358;6.382;2023-06-22T00:55:12;18.88;;;16.88;;
17854;SDS011;9053;53.358;6.382;2023-06-22T00:57:44;20.45;;;18.25;;
17854;SDS011;9053;53.358;6.382;2023-06-22T01:00:18;18.38;;;16.38;;
17854;SDS011;9053;53.358;6.382;2023-06-22T01:02:51;18.98;;;16.95;;
17854;SDS011;9053;53.358;6.382;2023-06-22T01:05:23;20.63;;;16.98;;
17854;SDS011;9053;53.358;6.382;2023-06-22T01:08:00;18.63;;;16.50;;
17854;SDS011;9053;53.358;6.382;2023-06-22T01:10:39;17.52;;;15.55;;
17854;SDS011;9053;53.358;6.382;2023-06-22T01:13:15;19.13;;;16.92;;
17854;SDS011;9053;53.358;6.382;2023-06-22T01:15:55;18.70;;;16.73;;
17854;SDS011;9053;53.358;6.382;2023-06-22T01:18:30;18.77;;;15.98;;
17854;SDS011;9053;53.358;6.382;2023-06-22T01:21:03;22.40;;;19.60;;
17854;SDS011;9053;53.358;6.382;2023-06-22T01:23:39;21.20;;;18.85;;
17854;SDS011;9053;53.358;6.382;2023-06-22T01:26:22;20.58;;;18.38;;
17854;SDS011;9053;53.358;6.382;2023-06-22T01:29:00;18.23;;;15.25;;
17854;SDS011;9053;53.358;6.382;2023-06-22T01:31:33;20.25;;;18.05;;
17854;SDS011;9053;53.358;6.382;2023-06-22T01:34:04;19.83;;;17.30;;
17854;SDS011;9053;53.358;6.382;2023-06-22T01:36:35;20.33;;;16.85;;
17854;SDS011;9053;53.358;6.382;2023-06-22T01:39:09;20.52;;;16.55;;
17854;SDS011;9053;53.358;6.382;2023-06-22T01:41:41;19.25;;;17.15;;
17854;SDS011;9053;53.358;6.382;2023-06-22T01:44:14;18.00;;;15.27;;
17854;SDS011;9053;53.358;6.382;2023-06-22T01:46:45;21.23;;;18.10;;
17854;SDS011;9053;53.358;6.382;2023-06-22T01:49:19;21.23;;;18.13;;
17854;SDS011;9053;53.358;6.382;2023-06-22T01:51:49;21.00;;;18.17;;
17854;SDS011;9053;53.358;6.382;2023-06-22T01:54:20;18.80;;;16.80;;
17854;SDS011;9053;53.358;6.382;2023-06-22T01:56:50;18.33;;;16.13;;
17854;SDS011;9053;53.358;6.382;2023-06-22T01:59:24;18.00;;;15.23;;
17854;SDS011;9053;53.358;6.382;2023-06-22T02:01:59;22.63;;;17.60;;
17854;SDS011;9053;53.358;6.382;2023-06-22T02:04:35;18.33;;;15.27;;
17854;SDS011;9053;53.358;6.382;2023-06-22T02:07:13;15.80;;;14.05;;
17854;SDS011;9053;53.358;6.382;2023-06-22T02:09:46;17.05;;;15.25;;
17854;SDS011;9053;53.358;6.382;2023-06-22T02:12:21;16.75;;;14.95;;
17854;SDS011;9053;53.358;6.382;2023-06-22T02:14:56;18.58;;;15.13;;
17854;SDS011;9053;53.358;6.382;2023-06-22T02:17:27;17.13;;;14.20;;
17854;SDS011;9053;53.358;6.382;2023-06-22T02:20:00;16.85;;;14.43;;
17854;SDS011;9053;53.358;6.382;2023-06-22T02:22:35;18.60;;;15.90;;
17854;SDS011;9053;53.358;6.382;2023-06-22T02:25:05;17.70;;;15.23;;
17854;SDS011;9053;53.358;6.382;2023-06-22T02:27:35;15.25;;;13.23;;
17854;SDS011;9053;53.358;6.382;2023-06-22T02:30:10;14.60;;;13.07;;
17854;SDS011;9053;53.358;6.382;2023-06-22T02:32:41;14.93;;;13.40;;
17854;SDS011;9053;53.358;6.382;2023-06-22T02:35:11;14.95;;;13.23;;
17854;SDS011;9053;53.358;6.382;2023-06-22T02:37:41;12.95;;;11.55;;
17854;SDS011;9053;53.358;6.382;2023-06-22T02:40:11;11.55;;;10.38;;
17854;SDS011;9053;53.358;6.382;2023-06-22T02:42:42;12.50;;;11.30;;
17854;SDS011;9053;53.358;6.382;2023-06-22T02:45:15;12.13;;;10.77;;
17854;SDS011;9053;53.358;6.382;2023-06-22T02:47:45;10.43;;;9.43;;
17854;SDS011;9053;53.358;6.382;2023-06-22T02:50:15;10.90;;;9.80;;
17854;SDS011;9053;53.358;6.382;2023-06-22T02:52:45;12.77;;;10.20;;
17854;SDS011;9053;53.358;6.382;2023-06-22T02:55:15;11.68;;;10.57;;
17854;SDS011;9053;53.358;6.382;2023-06-22T02:57:45;12.70;;;11.40;;
17854;SDS011;9053;53.358;6.382;2023-06-22T03:00:21;11.07;;;9.98;;
17854;SDS011;9053;53.358;6.382;2023-06-22T03:02:57;12.45;;;10.93;;
17854;SDS011;9053;53.358;6.382;2023-06-22T03:05:27;13.38;;;11.98;;
17854;SDS011;9053;53.358;6.382;2023-06-22T03:07:59;14.95;;;13.45;;
17854;SDS011;9053;53.358;6.382;2023-06-22T03:10:29;18.35;;;16.30;;
17854;SDS011;9053;53.358;6.382;2023-06-22T03:12:59;19.98;;;17.15;;
17854;SDS011;9053;53.358;6.382;2023-06-22T03:15:31;19.17;;;17.08;;
17854;SDS011;9053;53.358;6.382;2023-06-22T03:18:02;21.35;;;18.50;;
17854;SDS011;9053;53.358;6.382;2023-06-22T03:20:32;17.52;;;15.27;;
17854;SDS011;9053;53.358;6.382;2023-06-22T03:23:02;15.32;;;13.70;;
17854;SDS011;9053;53.358;6.382;2023-06-22T03:25:32;12.60;;;10.98;;
17854;SDS011;9053;53.358;6.382;2023-06-22T03:28:04;13.23;;;11.82;;
17854;SDS011;9053;53.358;6.382;2023-06-22T03:30:37;13.43;;;12.02;;
17854;SDS011;9053;53.358;6.382;2023-06-22T03:33:07;13.90;;;12.48;;
17854;SDS011;9053;53.358;6.382;2023-06-22T03:35:37;17.60;;;14.98;;
17854;SDS011;9053;53.358;6.382;2023-06-22T03:38:08;15.10;;;13.50;;
17854;SDS011;9053;53.358;6.382;2023-06-22T03:40:37;15.07;;;13.48;;
17854;SDS011;9053;53.358;6.382;2023-06-22T03:43:08;16.52;;;14.73;;
17854;SDS011;9053;53.358;6.382;2023-06-22T03:45:41;18.05;;;15.85;;
17854;SDS011;9053;53.358;6.382;2023-06-22T03:48:12;15.65;;;13.55;;
17854;SDS011;9053;53.358;6.382;2023-06-22T03:50:42;13.27;;;11.88;;
17854;SDS011;9053;53.358;6.382;2023-06-22T03:53:11;14.43;;;12.90;;
17854;SDS011;9053;53.358;6.382;2023-06-22T03:55:47;15.63;;;13.73;;
17854;SDS011;9053;53.358;6.382;2023-06-22T03:58:19;18.33;;;15.48;;
17854;SDS011;9053;53.358;6.382;2023-06-22T04:00:52;20.67;;;16.30;;
17854;SDS011;9053;53.358;6.382;2023-06-22T04:03:22;22.40;;;17.67;;
17854;SDS011;9053;53.358;6.382;2023-06-22T04:05:52;20.52;;;16.38;;
17854;SDS011;9053;53.358;6.382;2023-06-22T04:08:22;16.73;;;12.95;;
17854;SDS011;9053;53.358;6.382;2023-06-22T04:10:52;17.23;;;13.82;;
17854;SDS011;9053;53.358;6.382;2023-06-22T04:13:22;18.45;;;14.88;;
17854;SDS011;9053;53.358;6.382;2023-06-22T04:15:55;17.45;;;15.05;;
17854;SDS011;9053;53.358;6.382;2023-06-22T04:18:25;18.02;;;15.35;;
17854;SDS011;9053;53.358;6.382;2023-06-22T04:20:55;19.30;;;15.55;;
17854;SDS011;9053;53.358;6.382;2023-06-22T04:23:25;19.08;;;16.08;;
17854;SDS011;9053;53.358;6.382;2023-06-22T04:25:54;22.75;;;18.92;;
17854;SDS011;9053;53.358;6.382;2023-06-22T04:28:28;17.10;;;14.73;;
17854;SDS011;9053;53.358;6.382;2023-06-22T04:31:04;14.68;;;13.10;;
17854;SDS011;9053;53.358;6.382;2023-06-22T04:33:34;13.40;;;12.00;;
17854;SDS011;9053;53.358;6.382;2023-06-22T04:36:04;14.20;;;12.65;;
17854;SDS011;9053;53.358;6.382;2023-06-22T04:38:34;15.95;;;14.05;;
17854;SDS011;9053;53.358;6.382;2023-06-22T04:41:04;17.30;;;15.50;;
17854;SDS011;9053;53.358;6.382;2023-06-22T04:43:36;17.13;;;15.32;;
17854;SDS011;9053;53.358;6.382;2023-06-22T04:46:08;19.13;;;16.55;;
17854;SDS011;9053;53.358;6.382;2023-06-22T04:48:38;15.88;;;14.25;;
17854;SDS011;9053;53.358;6.382;2023-06-22T04:51:08;21.45;;;18.20;;
17854;SDS011;9053;53.358;6.382;2023-06-22T04:53:39;21.13;;;18.70;;
17854;SDS011;9053;53.358;6.382;2023-06-22T04:56:11;27.63;;;22.92;;
17854;SDS011;9053;53.358;6.382;2023-06-22T04:58:45;26.80;;;21.00;;
17854;SDS011;9053;53.358;6.382;2023-06-22T05:01:17;27.35;;;22.95;;
17854;SDS011;9053;53.358;6.382;2023-06-22T05:03:49;27.80;;;22.27;;
17854;SDS011;9053;53.358;6.382;2023-06-22T05:06:22;27.65;;;23.00;;
17854;SDS011;9053;53.358;6.382;2023-06-22T05:08:53;33.08;;;26.50;;
17854;SDS011;9053;53.358;6.382;2023-06-22T05:11:25;24.58;;;21.05;;
17854;SDS011;9053;53.358;6.382;2023-06-22T05:13:57;24.25;;;20.33;;
17854;SDS011;9053;53.358;6.382;2023-06-22T05:16:30;23.02;;;19.40;;
17854;SDS011;9053;53.358;6.382;2023-06-22T05:18:59;27.35;;;22.05;;
17854;SDS011;9053;53.358;6.382;2023-06-22T05:21:30;23.95;;;19.05;;
17854;SDS011;9053;53.358;6.382;2023-06-22T05:24:01;28.23;;;22.90;;
17854;SDS011;9053;53.358;6.382;2023-06-22T05:26:31;28.83;;;23.52;;
17854;SDS011;9053;53.358;6.382;2023-06-22T05:29:03;29.73;;;23.17;;
17854;SDS011;9053;53.358;6.382;2023-06-22T05:31:35;27.00;;;21.95;;
17854;SDS011;9053;53.358;6.382;2023-06-22T05:34:08;29.92;;;24.05;;
17854;SDS011;9053;53.358;6.382;2023-06-22T05:36:37;33.63;;;27.15;;
17854;SDS011;9053;53.358;6.382;2023-06-22T05:39:11;27.23;;;23.50;;
17854;SDS011;9053;53.358;6.382;2023-06-22T05:41:43;22.02;;;19.67;;
17854;SDS011;9053;53.358;6.382;2023-06-22T05:44:14;27.02;;;22.60;;
17854;SDS011;9053;53.358;6.382;2023-06-22T05:46:46;22.08;;;18.58;;
17854;SDS011;9053;53.358;6.382;2023-06-22T05:49:19;27.95;;;24.35;;
17854;SDS011;9053;53.358;6.382;2023-06-22T05:51:51;32.40;;;27.08;;
17854;SDS011;9053;53.358;6.382;2023-06-22T05:54:26;23.42;;;20.75;;
17854;SDS011;9053;53.358;6.382;2023-06-22T05:56:57;25.27;;;21.48;;
17854;SDS011;9053;53.358;6.382;2023-06-22T05:59:27;24.45;;;21.25;;
17854;SDS011;9053;53.358;6.382;2023-06-22T06:01:59;31.40;;;26.85;;
17854;SDS011;9053;53.358;6.382;2023-06-22T06:04:29;23.42;;;20.83;;
17854;SDS011;9053;53.358;6.382;2023-06-22T06:06:59;33.78;;;28.75;;
17854;SDS011;9053;53.358;6.382;2023-06-22T06:09:29;32.80;;;26.98;;
17854;SDS011;9053;53.358;6.382;2023-06-22T06:12:03;28.65;;;23.85;;
17854;SDS011;9053;53.358;6.382;2023-06-22T06:14:34;33.55;;;28.02;;
17854;SDS011;9053;53.358;6.382;2023-06-22T06:17:07;31.17;;;25.73;;
17854;SDS011;9053;53.358;6.382;2023-06-22T06:19:36;30.58;;;26.17;;
17854;SDS011;9053;53.358;6.382;2023-06-22T06:22:06;26.45;;;22.92;;
17854;SDS011;9053;53.358;6.382;2023-06-22T06:24:36;32.55;;;27.17;;
17854;SDS011;9053;53.358;6.382;2023-06-22T06:27:06;34.22;;;28.58;;
17854;SDS011;9053;53.358;6.382;2023-06-22T06:29:46;28.20;;;24.67;;
17854;SDS011;9053;53.358;6.382;2023-06-22T06:32:18;30.20;;;26.30;;
17854;SDS011;9053;53.358;6.382;2023-06-22T06:34:50;31.05;;;27.73;;
17854;SDS011;9053;53.358;6.382;2023-06-22T06:37:21;26.15;;;22.90;;
17854;SDS011;9053;53.358;6.382;2023-06-22T06:39:53;28.05;;;21.83;;
17854;SDS011;9053;53.358;6.382;2023-06-22T06:42:23;24.40;;;20.48;;
17854;SDS011;9053;53.358;6.382;2023-06-22T06:44:53;35.15;;;29.40;;
17854;SDS011;9053;53.358;6.382;2023-06-22T06:47:26;27.38;;;24.17;;
17854;SDS011;9053;53.358;6.382;2023-06-22T06:49:55;34.55;;;26.55;;
17854;SDS011;9053;53.358;6.382;2023-06-22T06:52:26;26.40;;;21.50;;
17854;SDS011;9053;53.358;6.382;2023-06-22T06:54:57;23.40;;;19.30;;
17854;SDS011;9053;53.358;6.382;2023-06-22T06:57:26;18.63;;;16.20;;
17854;SDS011;9053;53.358;6.382;2023-06-22T06:59:57;30.05;;;24.67;;
17854;SDS011;9053;53.358;6.382;2023-06-22T07:02:29;29.10;;;23.95;;
17854;SDS011;9053;53.358;6.382;2023-06-22T07:04:59;28.50;;;23.10;;
17854;SDS011;9053;53.358;6.382;2023-06-22T07:07:30;21.65;;;17.02;;
17854;SDS011;9053;53.358;6.382;2023-06-22T07:10:04;22.13;;;18.48;;
17854;SDS011;9053;53.358;6.382;2023-06-22T07:12:35;19.65;;;17.17;;
17854;SDS011;9053;53.358;6.382;2023-06-22T07:15:06;21.52;;;17.80;;
17854;SDS011;9053;53.358;6.382;2023-06-22T07:17:41;20.30;;;16.58;;
17854;SDS011;9053;53.358;6.382;2023-06-22T07:20:12;21.45;;;18.38;;
17854;SDS011;9053;53.358;6.382;2023-06-22T07:22:42;18.95;;;16.33;;
17854;SDS011;9053;53.358;6.382;2023-06-22T07:25:13;23.35;;;18.67;;
17854;SDS011;9053;53.358;6.382;2023-06-22T07:27:44;20.45;;;18.17;;
17854;SDS011;9053;53.358;6.382;2023-06-22T07:30:15;20.25;;;16.83;;
17854;SDS011;9053;53.358;6.382;2023-06-22T07:32:47;18.65;;;16.65;;
17854;SDS011;9053;53.358;6.382;2023-06-22T07:35:17;17.10;;;14.48;;
17854;SDS011;9053;53.358;6.382;2023-06-22T07:37:48;22.90;;;15.98;;
17854;SDS011;9053;53.358;6.382;2023-06-22T07:40:22;20.27;;;16.40;;
17854;SDS011;9053;53.358;6.382;2023-06-22T07:42:51;15.68;;;14.07;;
17854;SDS011;9053;53.358;6.382;2023-06-22T07:45:30;20.10;;;16.45;;
17854;SDS011;9053;53.358;6.382;2023-06-22T07:48:04;16.80;;;13.23;;
17854;SDS011;9053;53.358;6.382;2023-06-22T07:50:34;13.13;;;11.73;;
17854;SDS011;9053;53.358;6.382;2023-06-22T07:53:04;14.80;;;13.23;;
17854;SDS011;9053;53.358;6.382;2023-06-22T07:55:34;14.82;;;13.25;;
17854;SDS011;9053;53.358;6.382;2023-06-22T07:58:04;13.10;;;11.50;;
17854;SDS011;9053;53.358;6.382;2023-06-22T08:00:34;19.25;;;14.73;;
17854;SDS011;9053;53.358;6.382;2023-06-22T08:03:06;17.65;;;13.85;;
17854;SDS011;9053;53.358;6.382;2023-06-22T08:05:37;14.40;;;12.73;;
17854;SDS011;9053;53.358;6.382;2023-06-22T08:08:07;13.90;;;11.93;;
17854;SDS011;9053;53.358;6.382;2023-06-22T08:10:37;12.35;;;11.05;;
17854;SDS011;9053;53.358;6.382;2023-06-22T08:13:07;14.70;;;12.73;;
17854;SDS011;9053;53.358;6.382;2023-06-22T08:15:37;15.00;;;12.40;;
17854;SDS011;9053;53.358;6.382;2023-06-22T08:18:10;16.42;;;11.57;;
17854;SDS011;9053;53.358;6.382;2023-06-22T08:20:40;16.10;;;12.70;;
17854;SDS011;9053;53.358;6.382;2023-06-22T08:23:11;14.25;;;11.50;;
17854;SDS011;9053;53.358;6.382;2023-06-22T08:25:41;17.08;;;15.25;;
17854;SDS011;9053;53.358;6.382;2023-06-22T08:28:10;17.00;;;14.27;;
17854;SDS011;9053;53.358;6.382;2023-06-22T08:30:40;18.17;;;16.02;;
17854;SDS011;9053;53.358;6.382;2023-06-22T08:33:13;19.05;;;14.32;;
17854;SDS011;9053;53.358;6.382;2023-06-22T08:35:53;16.33;;;13.10;;
17854;SDS011;9053;53.358;6.382;2023-06-22T08:38:24;15.48;;;13.18;;
17854;SDS011;9053;53.358;6.382;2023-06-22T08:40:53;13.07;;;11.07;;
17854;SDS011;9053;53.358;6.382;2023-06-22T08:43:23;11.30;;;10.10;;
17854;SDS011;9053;53.358;6.382;2023-06-22T08:45:53;16.48;;;12.57;;
17854;SDS011;9053;53.358;6.382;2023-06-22T08:48:26;17.65;;;12.95;;
17854;SDS011;9053;53.358;6.382;2023-06-22T08:50:56;17.35;;;13.30;;
17854;SDS011;9053;53.358;6.382;2023-06-22T08:53:26;16.38;;;13.65;;
17854;SDS011;9053;53.358;6.382;2023-06-22T08:55:55;13.57;;;12.15;;
17854;SDS011;9053;53.358;6.382;2023-06-22T08:58:25;14.57;;;11.75;;
17854;SDS011;9053;53.358;6.382;2023-06-22T09:00:55;13.13;;;11.73;;
17854;SDS011;9053;53.358;6.382;2023-06-22T09:03:30;16.02;;;13.02;;
17854;SDS011;9053;53.358;6.382;2023-06-22T09:06:04;15.98;;;13.85;;
17854;SDS011;9053;53.358;6.382;2023-06-22T09:08:35;15.20;;;12.88;;
17854;SDS011;9053;53.358;6.382;2023-06-22T09:11:05;15.80;;;10.32;;
17854;SDS011;9053;53.358;6.382;2023-06-22T09:13:35;11.38;;;9.10;;
17854;SDS011;9053;53.358;6.382;2023-06-22T09:16:06;10.90;;;9.02;;
17854;SDS011;9053;53.358;6.382;2023-06-22T09:18:38;11.70;;;8.90;;
17854;SDS011;9053;53.358;6.382;2023-06-22T09:21:08;9.60;;;7.90;;
17854;SDS011;9053;53.358;6.382;2023-06-22T09:23:38;12.38;;;10.05;;
17854;SDS011;9053;53.358;6.382;2023-06-22T09:26:09;10.10;;;8.43;;
17854;SDS011;9053;53.358;6.382;2023-06-22T09:28:39;10.15;;;8.38;;
17854;SDS011;9053;53.358;6.382;2023-06-22T09:31:09;9.43;;;7.85;;
17854;SDS011;9053;53.358;6.382;2023-06-22T09:33:42;9.10;;;7.97;;
17854;SDS011;9053;53.358;6.382;2023-06-22T09:36:13;6.50;;;5.57;;
17854;SDS011;9053;53.358;6.382;2023-06-22T09:38:43;7.43;;;5.72;;
17854;SDS011;9053;53.358;6.382;2023-06-22T09:41:16;8.32;;;5.93;;
17854;SDS011;9053;53.358;6.382;2023-06-22T09:43:46;7.88;;;5.95;;
17854;SDS011;9053;53.358;6.382;2023-06-22T09:46:17;8.70;;;6.40;;
17854;SDS011;9053;53.358;6.382;2023-06-22T09:48:51;8.32;;;6.35;;
17854;SDS011;9053;53.358;6.382;2023-06-22T09:51:21;8.45;;;6.65;;
17854;SDS011;9053;53.358;6.382;2023-06-22T09:53:51;7.68;;;5.40;;
17854;SDS011;9053;53.358;6.382;2023-06-22T09:56:21;7.28;;;5.20;;
17854;SDS011;9053;53.358;6.382;2023-06-22T09:58:57;6.05;;;5.43;;
17854;SDS011;9053;53.358;6.382;2023-06-22T10:01:43;6.13;;;5.53;;
17854;SDS011;9053;53.358;6.382;2023-06-22T10:04:16;8.57;;;7.35;;
17854;SDS011;9053;53.358;6.382;2023-06-22T10:06:46;6.80;;;5.40;;
17854;SDS011;9053;53.358;6.382;2023-06-22T10:09:16;6.40;;;5.72;;
17854;SDS011;9053;53.358;6.382;2023-06-22T10:11:46;6.25;;;5.50;;
17854;SDS011;9053;53.358;6.382;2023-06-22T10:14:16;7.55;;;5.63;;
17854;SDS011;9053;53.358;6.382;2023-06-22T10:16:46;7.88;;;6.07;;
17854;SDS011;9053;53.358;6.382;2023-06-22T10:19:18;7.00;;;5.95;;
17854;SDS011;9053;53.358;6.382;2023-06-22T10:21:48;6.72;;;5.15;;
17854;SDS011;9053;53.358;6.382;2023-06-22T10:24:18;6.20;;;5.45;;
17854;SDS011;9053;53.358;6.382;2023-06-22T10:26:48;7.28;;;5.90;;
17854;SDS011;9053;53.358;6.382;2023-06-22T10:29:19;6.88;;;6.13;;
17854;SDS011;9053;53.358;6.382;2023-06-22T10:31:49;7.00;;;5.60;;
17854;SDS011;9053;53.358;6.382;2023-06-22T10:34:22;6.15;;;5.30;;
17854;SDS011;9053;53.358;6.382;2023-06-22T10:36:52;7.35;;;4.90;;
17854;SDS011;9053;53.358;6.382;2023-06-22T10:39:23;5.95;;;4.20;;
17854;SDS011;9053;53.358;6.382;2023-06-22T10:41:52;5.03;;;3.75;;
17854;SDS011;9053;53.358;6.382;2023-06-22T10:44:22;4.10;;;3.63;;
17854;SDS011;9053;53.358;6.382;2023-06-22T10:46:52;4.88;;;4.00;;
17854;SDS011;9053;53.358;6.382;2023-06-22T10:49:27;2.97;;;2.50;;
17854;SDS011;9053;53.358;6.382;2023-06-22T10:51:57;3.45;;;2.88;;
17854;SDS011;9053;53.358;6.382;2023-06-22T10:54:27;3.30;;;2.67;;
17854;SDS011;9053;53.358;6.382;2023-06-22T10:57:01;2.58;;;2.38;;
17854;SDS011;9053;53.358;6.382;2023-06-22T10:59:35;3.25;;;2.58;;
17854;SDS011;9053;53.358;6.382;2023-06-22T11:02:05;2.42;;;2.22;;
17854;SDS011;9053;53.358;6.382;2023-06-22T11:04:37;3.53;;;2.30;;
17854;SDS011;9053;53.358;6.382;2023-06-22T11:07:08;2.72;;;2.17;;
17854;SDS011;9053;53.358;6.382;2023-06-22T11:09:40;4.05;;;2.55;;
17854;SDS011;9053;53.358;6.382;2023-06-22T11:12:10;4.07;;;2.70;;
17854;SDS011;9053;53.358;6.382;2023-06-22T11:14:40;3.85;;;3.22;;
17854;SDS011;9053;53.358;6.382;2023-06-22T11:17:10;6.13;;;3.80;;
17854;SDS011;9053;53.358;6.382;2023-06-22T11:19:42;32.53;;;6.35;;
17854;SDS011;9053;53.358;6.382;2023-06-22T11:22:13;6.45;;;3.40;;
17854;SDS011;9053;53.358;6.382;2023-06-22T11:24:43;5.13;;;3.25;;
17854;SDS011;9053;53.358;6.382;2023-06-22T11:27:12;3.30;;;3.00;;
17854;SDS011;9053;53.358;6.382;2023-06-22T11:29:42;9.43;;;3.33;;
17854;SDS011;9053;53.358;6.382;2023-06-22T11:32:12;5.28;;;3.28;;
17854;SDS011;9053;53.358;6.382;2023-06-22T11:34:45;9.98;;;2.75;;
17854;SDS011;9053;53.358;6.382;2023-06-22T11:37:15;3.03;;;2.60;;
17854;SDS011;9053;53.358;6.382;2023-06-22T11:39:48;2.50;;;2.10;;
17854;SDS011;9053;53.358;6.382;2023-06-22T11:42:32;2.67;;;2.35;;
17854;SDS011;9053;53.358;6.382;2023-06-22T11:45:04;3.85;;;2.72;;
17854;SDS011;9053;53.358;6.382;2023-06-22T11:47:35;3.22;;;2.20;;
17854;SDS011;9053;53.358;6.382;2023-06-22T11:50:09;3.00;;;2.28;;
17854;SDS011;9053;53.358;6.382;2023-06-22T11:52:39;2.45;;;2.00;;
17854;SDS011;9053;53.358;6.382;2023-06-22T11:55:09;3.22;;;2.03;;
17854;SDS011;9053;53.358;6.382;2023-06-22T11:57:52;2.80;;;1.95;;
17854;SDS011;9053;53.358;6.382;2023-06-22T12:00:23;2.53;;;1.80;;
17854;SDS011;9053;53.358;6.382;2023-06-22T12:02:56;2.50;;;1.85;;
17854;SDS011;9053;53.358;6.382;2023-06-22T12:05:29;2.50;;;2.03;;
17854;SDS011;9053;53.358;6.382;2023-06-22T12:07:59;3.00;;;2.10;;
17854;SDS011;9053;53.358;6.382;2023-06-22T12:10:35;2.38;;;2.00;;
17854;SDS011;9053;53.358;6.382;2023-06-22T12:13:05;2.25;;;1.95;;
17854;SDS011;9053;53.358;6.382;2023-06-22T12:15:37;3.90;;;1.83;;
17854;SDS011;9053;53.358;6.382;2023-06-22T12:18:06;2.70;;;1.80;;
17854;SDS011;9053;53.358;6.382;2023-06-22T12:20:39;2.30;;;2.10;;
17854;SDS011;9053;53.358;6.382;2023-06-22T12:23:09;2.20;;;2.00;;
17854;SDS011;9053;53.358;6.382;2023-06-22T12:25:40;2.75;;;1.95;;
17854;SDS011;9053;53.358;6.382;2023-06-22T12:28:10;2.03;;;1.77;;
17854;SDS011;9053;53.358;6.382;2023-06-22T12:30:40;2.47;;;1.90;;
17854;SDS011;9053;53.358;6.382;2023-06-22T12:33:10;2.35;;;1.85;;
17854;SDS011;9053;53.358;6.382;2023-06-22T12:35:43;2.42;;;1.90;;
17854;SDS011;9053;53.358;6.382;2023-06-22T12:38:15;4.03;;;2.13;;
17854;SDS011;9053;53.358;6.382;2023-06-22T12:40:48;2.20;;;1.70;;
17854;SDS011;9053;53.358;6.382;2023-06-22T12:43:18;2.22;;;1.95;;
17854;SDS011;9053;53.358;6.382;2023-06-22T12:45:49;2.53;;;1.80;;
17854;SDS011;9053;53.358;6.382;2023-06-22T12:48:20;3.30;;;1.90;;
17854;SDS011;9053;53.358;6.382;2023-06-22T12:50:54;2.10;;;1.70;;
17854;SDS011;9053;53.358;6.382;2023-06-22T12:53:24;1.63;;;1.40;;
17854;SDS011;9053;53.358;6.382;2023-06-22T12:55:54;1.85;;;1.63;;
17854;SDS011;9053;53.358;6.382;2023-06-22T12:58:23;2.45;;;1.77;;
17854;SDS011;9053;53.358;6.382;2023-06-22T13:00:55;4.03;;;1.83;;
17854;SDS011;9053;53.358;6.382;2023-06-22T13:03:25;2.20;;;1.80;;
17854;SDS011;9053;53.358;6.382;2023-06-22T13:05:58;2.10;;;1.55;;
17854;SDS011;9053;53.358;6.382;2023-06-22T13:08:28;2.63;;;1.63;;
17854;SDS011;9053;53.358;6.382;2023-06-22T13:11:19;3.30;;;1.83;;
17854;SDS011;9053;53.358;6.382;2023-06-22T13:13:49;1.83;;;1.60;;
17854;SDS011;9053;53.358;6.382;2023-06-22T13:16:19;1.95;;;1.60;;
17854;SDS011;9053;53.358;6.382;2023-06-22T13:18:49;1.95;;;1.60;;
17854;SDS011;9053;53.358;6.382;2023-06-22T13:21:22;1.90;;;1.50;;
17854;SDS011;9053;53.358;6.382;2023-06-22T13:23:52;1.92;;;1.45;;
17854;SDS011;9053;53.358;6.382;2023-06-22T13:26:22;2.83;;;1.30;;
17854;SDS011;9053;53.358;6.382;2023-06-22T13:28:52;2.15;;;1.50;;
17854;SDS011;9053;53.358;6.382;2023-06-22T13:31:22;2.30;;;1.38;;
17854;SDS011;9053;53.358;6.382;2023-06-22T13:33:52;4.75;;;1.60;;
17854;SDS011;9053;53.358;6.382;2023-06-22T13:36:24;2.40;;;1.25;;
17854;SDS011;9053;53.358;6.382;2023-06-22T13:38:59;1.75;;;1.50;;
17854;SDS011;9053;53.358;6.382;2023-06-22T13:41:29;2.05;;;1.63;;
17854;SDS011;9053;53.358;6.382;2023-06-22T13:43:59;2.67;;;1.70;;
17854;SDS011;9053;53.358;6.382;2023-06-22T13:46:29;4.63;;;1.60;;
17854;SDS011;9053;53.358;6.382;2023-06-22T13:48:59;4.55;;;1.90;;
17854;SDS011;9053;53.358;6.382;2023-06-22T13:51:31;2.10;;;1.80;;
17854;SDS011;9053;53.358;6.382;2023-06-22T13:54:01;3.20;;;1.60;;
17854;SDS011;9053;53.358;6.382;2023-06-22T13:56:37;2.00;;;1.70;;
17854;SDS011;9053;53.358;6.382;2023-06-22T13:59:07;3.10;;;1.67;;
17854;SDS011;9053;53.358;6.382;2023-06-22T14:01:37;2.35;;;1.80;;
17854;SDS011;9053;53.358;6.382;2023-06-22T14:04:08;1.75;;;1.38;;
17854;SDS011;9053;53.358;6.382;2023-06-22T14:06:41;2.90;;;1.80;;
17854;SDS011;9053;53.358;6.382;2023-06-22T14:09:10;2.28;;;1.60;;
17854;SDS011;9053;53.358;6.382;2023-06-22T14:11:40;3.03;;;1.60;;
17854;SDS011;9053;53.358;6.382;2023-06-22T14:14:10;2.13;;;1.60;;
17854;SDS011;9053;53.358;6.382;2023-06-22T14:16:40;2.38;;;1.70;;
17854;SDS011;9053;53.358;6.382;2023-06-22T14:19:10;1.95;;;1.63;;
17854;SDS011;9053;53.358;6.382;2023-06-22T14:21:42;2.03;;;1.33;;
17854;SDS011;9053;53.358;6.382;2023-06-22T14:24:12;1.50;;;1.40;;
17854;SDS011;9053;53.358;6.382;2023-06-22T14:26:42;2.38;;;1.30;;
17854;SDS011;9053;53.358;6.382;2023-06-22T14:29:12;1.40;;;1.23;;
17854;SDS011;9053;53.358;6.382;2023-06-22T14:31:44;2.63;;;1.40;;
17854;SDS011;9053;53.358;6.382;2023-06-22T14:34:15;1.98;;;1.45;;
17854;SDS011;9053;53.358;6.382;2023-06-22T14:36:50;3.25;;;1.55;;
17854;SDS011;9053;53.358;6.382;2023-06-22T14:39:20;2.35;;;1.52;;
17854;SDS011;9053;53.358;6.382;2023-06-22T14:41:51;2.42;;;1.60;;
17854;SDS011;9053;53.358;6.382;2023-06-22T14:44:21;1.83;;;1.67;;
17854;SDS011;9053;53.358;6.382;2023-06-22T14:46:51;1.45;;;1.35;;
17854;SDS011;9053;53.358;6.382;2023-06-22T14:49:21;1.30;;;1.17;;
17854;SDS011;9053;53.358;6.382;2023-06-22T14:51:54;2.75;;;1.58;;
17854;SDS011;9053;53.358;6.382;2023-06-22T14:54:24;1.92;;;1.33;;
17854;SDS011;9053;53.358;6.382;2023-06-22T14:56:53;4.97;;;1.30;;
17854;SDS011;9053;53.358;6.382;2023-06-22T14:59:23;2.63;;;1.40;;
17854;SDS011;9053;53.358;6.382;2023-06-22T15:01:53;2.20;;;1.60;;
17854;SDS011;9053;53.358;6.382;2023-06-22T15:04:23;2.75;;;1.35;;
17854;SDS011;9053;53.358;6.382;2023-06-22T15:07:03;2.47;;;1.38;;
17854;SDS011;9053;53.358;6.382;2023-06-22T15:09:34;2.30;;;1.50;;
17854;SDS011;9053;53.358;6.382;2023-06-22T15:12:06;2.55;;;1.73;;